Flight Track Log - Related Links

Times and Time Zones

All times are in EST time to prevent confusion due to time zone crossing. See the FFT917 flight status page for this flight to view local times or setup timezone preferences in your user account.

Time Position Orientation Groundspeed Altitude Reporting Facility
EST Latitude Longitude Course Direction KTS MPH feet Rate Location/Type
Fri 11:35:27 40.2667 -74.8333 229° Southwest 158 182 900  Level Philadelphia TRACON
Fri 11:36:28 40.2333 -74.8833 229° Southwest 230 265 2,800 2,628 Climbing Philadelphia TRACON
Fri 11:37:28 40.2000 -74.9667 242° Southwest 250 288 6,200 2,118 Climbing Philadelphia TRACON
Fri 11:38:27 40.1667 -75.0333 237° Southwest 244 281 7,000 655 Climbing Philadelphia TRACON
Fri 11:39:27 40.1333 -75.1167 242° Southwest 252 290 7,500 1,513 Climbing Philadelphia TRACON
Fri 11:40:22 40.1000 -75.1833 237° Southwest 257 296 9,900 1,304 Climbing Philadelphia TRACON
Fri 11:41:22 40.0667 -75.2667 242° Southwest 255 293 10,000 34 Climbing Philadelphia TRACON
Fri 11:43:20 39.9894 -75.4500 241° Southwest 295 339 10,000 236 Level New York Center
Fri 11:44:20 39.9481 -75.5472 241° Southwest 305 351 10,700 1,950 Climbing New York Center
Fri 11:45:20 39.9067 -75.6419 240° Southwest 305 351 13,900 3,200 Climbing New York Center
Fri 11:46:20 39.8650 -75.7392 241° Southwest 305 351 17,100 2,550 Climbing New York Center
Fri 11:47:20 39.8194 -75.8306 237° Southwest 305 351 19,000 1,750 Climbing New York Center
Fri 11:48:20 39.7611 -75.9236 231° Southwest 316 364 20,600 1,751 Climbing New York Center
Fri 11:50:49 39.6103 -76.1625 231° Southwest 355 409 25,100 1,739 Climbing Washington Center
Fri 11:51:47 39.5408 -76.2697 230° Southwest 365 420 26,600 1,765 Climbing Washington Center
Fri 11:52:48 39.4756 -76.3711 230° Southwest 377 434 28,600 2,033 Climbing Washington Center
Fri 11:53:48 39.4083 -76.4725 229° Southwest 377 434 30,700 1,686 Climbing Washington Center
Fri 11:54:49 39.3428 -76.5764 231° Southwest 377 434 32,000 655 Climbing Washington Center
Fri 11:55:47 39.2794 -76.6747 230° Southwest 366 421 32,000  Level Washington Center
Fri 11:56:48 39.2161 -76.7756 231° Southwest 366 421 32,000  Level Washington Center
Fri 11:57:49 39.1525 -76.8736 230° Southwest 372 428 32,000  Level Washington Center
Fri 11:58:47 39.0867 -76.9742 230° Southwest 372 428 32,000  Level Washington Center
Fri 11:59:48 39.0169 -77.0689 227° Southwest 372 428 32,000  Level Washington Center
Fri 12:00:48 38.9408 -77.1528 221° Southwest 372 428 32,000  Level Washington Center
Fri 12:01:49 38.8625 -77.2367 220° Southwest 366 421 32,000  Level Washington Center
Fri 12:02:49 38.7883 -77.3200 221° Southwest 366 421 32,000  Level Washington Center
Fri 12:03:47 38.7186 -77.3931 219° Southwest 366 421 32,000  Level Washington Center
Fri 12:04:47 38.6422 -77.4761 220° Southwest 366 421 32,000 50 Level Washington Center
Fri 12:05:48 38.5658 -77.5592 220° Southwest 366 421 32,100  Climbing Washington Center
Fri 12:06:49 38.4914 -77.6422 221° Southwest 361 415 32,000 -50 Descending Washington Center
Fri 12:07:47 38.4172 -77.7222 220° Southwest 361 415 32,000  Level Washington Center
Fri 12:08:48 38.3428 -77.8022 220° Southwest 356 410 32,000 -49 Level Washington Center
Fri 12:09:49 38.2683 -77.8819 220° Southwest 356 410 31,900  Descending Washington Center
Fri 12:11:00 38.1775 -77.9730 218° Southwest  Level FlightAware Approximate
Fri 12:11:47 38.1192 -78.0411 218° Southwest 356 410 32,000  Level Washington Center
Fri 12:12:48 38.0467 -78.1178 220° Southwest 355 409 32,000  Level Washington Center
Fri 12:13:48 37.9675 -78.2019 220° Southwest 349 402 32,000  Level Washington Center
Fri 12:14:49 37.8889 -78.2756 216° Southwest 349 402 32,000  Level Washington Center
Fri 12:15:49 37.8164 -78.3442 217° Southwest 349 402 32,000  Level Washington Center
Fri 12:16:49 37.7481 -78.4100 217° Southwest 349 402 32,000  Level Washington Center
Fri 12:17:47 37.6733 -78.4781 216° Southwest 349 402 32,000  Level Washington Center
Fri 12:18:47 37.5967 -78.5483 216° Southwest 349 402 32,000 99 Level Washington Center
Fri 12:19:48 37.5217 -78.6242 219° Southwest 349 402 32,200 590 Climbing Washington Center
Fri 12:20:49 37.4450 -78.6917 215° Southwest 349 402 33,200 1,059 Climbing Washington Center
Fri 12:21:47 37.3636 -78.7692 217° Southwest 344 396 34,300 1,261 Climbing Washington Center
Fri 12:22:48 37.2867 -78.8367 215° Southwest 349 402 35,700 1,082 Climbing Washington Center
Fri 12:23:49 37.2117 -78.9064 217° Southwest 349 402 36,500 639 Climbing Washington Center
Fri 12:24:50 37.1367 -78.9789 218° Southwest 349 402 37,000 559 Climbing Washington Center
Fri 12:25:47 37.0575 -79.0508 216° Southwest 349 402 37,600 508 Climbing Washington Center
Fri 12:26:48 36.9867 -79.1178 217° Southwest 349 402 38,000 198 Climbing Washington Center
Fri 12:27:48 36.9075 -79.1894 216° Southwest 349 402 38,000  Level Washington Center
Fri 12:28:48 36.8322 -79.2611 217° Southwest 349 402 38,000 50 Level Washington Center
Fri 12:29:49 36.7528 -79.3328 216° Southwest 349 402 38,100  Climbing Washington Center
Fri 12:30:50 36.6667 -79.4139 217° Southwest 349 402 38,000 -51 Descending Washington Center
Fri 12:31:47 36.5894 -79.4828 216° Southwest 349 402 38,000  Level Washington Center
Fri 12:34:14 36.4011 -79.6511 216° Southwest 365 420 38,000  Level Atlanta Center
Fri 12:35:14 36.3222 -79.7225 216° Southwest 365 420 38,000  Level Atlanta Center
Fri 12:36:14 36.2436 -79.7936 216° Southwest 360 414 38,000  Level Atlanta Center
Fri 12:37:14 36.1583 -79.8675 215° Southwest 354 407 38,000  Level Atlanta Center
Fri 12:38:14 36.0794 -79.9383 216° Southwest 354 407 38,000  Level Atlanta Center
Fri 12:39:14 35.9939 -79.9967 209° Southwest 354 407 38,000  Level Atlanta Center
Fri 12:40:14 35.8994 -80.0475 204° Southwest 354 407 38,000  Level Atlanta Center
Fri 12:41:14 35.8153 -80.0900 202° Southwest 364 419 38,000  Level Atlanta Center
Fri 12:42:14 35.7231 -80.1353 202° Southwest 364 419 38,000  Level Atlanta Center
Fri 12:43:14 35.6306 -80.1858 204° Southwest 369 425 38,000  Level Atlanta Center
Fri 12:44:14 35.5342 -80.2336 202° Southwest 369 425 38,000  Level Atlanta Center
Fri 12:45:14 35.4417 -80.2789 202° Southwest 369 425 38,000  Level Atlanta Center
Fri 12:46:14 35.3408 -80.3267 201° Southwest 369 425 38,000  Level Atlanta Center
Fri 12:47:14 35.2461 -80.3692 200° South 369 425 38,000  Level Atlanta Center
Fri 12:48:14 35.1558 -80.4161 203° Southwest 369 425 38,000  Level Atlanta Center
Fri 12:51:17 34.8725 -80.5647 203° Southwest 366 421 38,000  Level Jacksonville Center
Fri 12:52:17 34.7817 -80.6075 201° Southwest 372 428 38,000 -50 Level Jacksonville Center
Fri 12:53:17 34.6886 -80.6531 202° Southwest 366 421 37,900  Descending Jacksonville Center
Fri 12:54:17 34.5889 -80.6808 193° South 366 421 38,000 50 Climbing Jacksonville Center
Fri 12:55:17 34.4872 -80.7061 192° South 371 427 38,000  Level Jacksonville Center
Fri 12:56:17 34.3833 -80.7289 190° South 376 433 38,000  Level Jacksonville Center
Fri 12:57:17 34.2794 -80.7514 190° South 376 433 38,000  Level Jacksonville Center
Fri 12:58:17 34.1775 -80.7742 190° South 376 433 38,000  Level Jacksonville Center
Fri 12:59:17 34.0736 -80.7942 189° South 376 433 38,000  Level Jacksonville Center
Fri 13:00:17 33.9694 -80.8167 190° South 381 438 38,000  Level Jacksonville Center
Fri 13:01:17 33.8656 -80.8417 191° South 381 438 38,000  Level Jacksonville Center
Fri 13:02:17 33.7617 -80.8642 190° South 386 444 38,000  Level Jacksonville Center
Fri 13:03:17 33.6556 -80.8864 190° South 386 444 38,000 -50 Level Jacksonville Center
Fri 13:04:17 33.5517 -80.9086 190° South 386 444 37,900  Descending Jacksonville Center
Fri 13:05:17 33.4475 -80.9286 189° South 386 444 38,000 50 Climbing Jacksonville Center
Fri 13:06:17 33.3456 -80.9531 191° South 391 450 38,000  Level Jacksonville Center
Fri 13:07:17 33.2397 -80.9753 190° South 391 450 38,000  Level Jacksonville Center
Fri 13:08:17 33.1375 -80.9947 189° South 391 450 38,000 -50 Level Jacksonville Center
Fri 13:09:17 33.0336 -81.0194 191° South 391 450 37,900 -50 Descending Jacksonville Center
Fri 13:10:17 32.9294 -81.0389 189° South 391 450 37,900 50 Level Jacksonville Center
Fri 13:11:17 32.8275 -81.0608 190° South 391 450 38,000 50 Climbing Jacksonville Center
Fri 13:12:17 32.7236 -81.0803 189° South 386 444 38,000  Level Jacksonville Center
Fri 13:13:17 32.6297 -81.0992 190° South 381 438 38,000  Level Jacksonville Center
Fri 13:14:17 32.5086 -81.0992 180° South 389 448 38,000  Level Jacksonville Center
Fri 13:15:17 32.3939 -81.0967 179° South 409 471 38,000  Level Jacksonville Center
Fri 13:16:17 32.2833 -81.0964 180° South 399 459 38,000  Level Jacksonville Center
Fri 13:17:17 32.1725 -81.0983 181° South 405 466 38,000  Level Jacksonville Center
Fri 13:18:17 32.0661 -81.1006 181° South 396 456 38,000 -50 Level Jacksonville Center
Fri 13:19:17 31.9533 -81.1003 180° South 396 456 37,900  Descending Jacksonville Center
Fri 13:20:17 31.8428 -81.1000 180° South 401 461 38,000 50 Climbing Jacksonville Center
Fri 13:21:17 31.7322 -81.0997 180° South 406 467 38,000  Level Jacksonville Center
Fri 13:22:17 31.6172 -81.1019 181° South 406 467 38,000  Level Jacksonville Center
Fri 13:23:17 31.5067 -81.1017 180° South 406 467 38,000  Level Jacksonville Center
Fri 13:24:17 31.4044 -81.1036 181° South 406 467 38,000  Level Jacksonville Center
Fri 13:25:17 31.2811 -81.1033 180° South 406 467 38,000  Level Jacksonville Center
Fri 13:26:17 31.1686 -81.1056 181° South 406 467 38,000  Level Jacksonville Center
Fri 13:27:17 31.0536 -81.1053 180° South 406 467 38,000 -50 Level Jacksonville Center
Fri 13:28:17 30.9408 -81.1050 180° South 406 467 37,900 -750 Descending Jacksonville Center
Fri 13:29:17 30.8239 -81.1072 181° South 406 467 36,500 -1,550 Descending Jacksonville Center
Fri 13:30:17 30.7111 -81.1069 180° South 406 467 34,800 -1,300 Descending Jacksonville Center
Fri 13:31:17 30.5944 -81.1067 180° South 406 467 33,900 -950 Descending Jacksonville Center
Fri 13:32:17 30.4775 -81.1067 180° South 416 479 32,900 -1,550 Descending Jacksonville Center
Fri 13:33:17 30.3564 -81.1089 181° South 423 487 30,800 -2,150 Descending Jacksonville Center
Fri 13:34:17 30.2311 -81.1086 180° South 436 502 28,600 -2,150 Descending Jacksonville Center
Fri 13:35:17 30.1100 -81.1108 181° South 441 507 26,500 -1,300 Descending Jacksonville Center
Fri 13:36:17 29.9931 -81.1131 181° South 441 507 26,000 -250 Descending Jacksonville Center
Fri 13:37:17 29.8761 -81.1106 179° South 436 502 26,000 -150 Level Jacksonville Center
Fri 13:38:17 29.7594 -81.1125 181° South 431 496 25,700 -1,250 Descending Jacksonville Center
Fri 13:39:17 29.6444 -81.1122 180° South 425 489 23,500 -2,350 Descending Jacksonville Center
Fri 13:40:17 29.5358 -81.1142 181° South 408 470 21,000 -5,750 Descending Jacksonville Center
Fri 13:41:17 29.4317 -81.1139 180° South 388 447 12,000 -2,100 Descending Jacksonville Center
Fri 13:42:17 29.3336 -81.1156 181° South 372 428 16,800 1,450 Climbing Jacksonville Center
Fri 13:43:17 29.2375 -81.1078 176° South 360 414 14,900 -1,650 Descending Jacksonville Center
Fri 13:44:17 29.1456 -81.1000 176° South 347 399 13,500 -1,300 Descending Jacksonville Center
Fri 13:45:17 29.0639 -81.0942 176° South 323 372 12,300 -900 Descending Jacksonville Center
Fri 13:46:17 28.9803 -81.0864 175° South 309 356 11,700 -1,200 Descending Jacksonville Center
Fri 13:47:17 28.9008 -81.0711 170° South 297 342 9,900 -1,526 Descending Jacksonville Center
Fri 13:48:11 28.8333 -81.0500 165° South 290 334 8,800 -1,046 Descending Orlando TRACON
Fri 13:49:06 28.7667 -81.0667 192° South 258 297 8,000 -992 Descending Orlando TRACON
Fri 13:50:12 28.7500 -81.1500 257° West 239 275 6,800 -1,250 Descending Orlando TRACON
Fri 13:51:06 28.7333 -81.2167 254° West 242 278 5,500 -1,278 Descending Orlando TRACON
Fri 13:52:00 28.6833 -81.2500 210° Southwest 232 267 4,500 -1,100 Descending Orlando TRACON
Fri 13:53:06 28.6167 -81.2667 192° South 224 258 3,300 -942 Descending Orlando TRACON
Fri 13:54:01 28.5667 -81.2833 196° South 199 229 2,600 -939 Descending Orlando TRACON
Fri 13:55:01 28.5167 -81.2833 180° South 178 205 1,500 -1,000 Descending Orlando TRACON
Fri 13:56:07 28.4667 -81.2833 180° South 146 168 500 -909 Descending Orlando TRACON
Fri 13:58:00 28.4294 -81.3090 186° South  Level Estimated
Fri 14:05:00 28.4294 -81.3090 186° South  Level Estimated
Fri 14:06:00 28.4294 -81.3090 186° South  Level Estimated
Fri 14:07:00 28.4294 -81.3090 186° South  Level Estimated

Login

Don't have an account? Register now (free) for customized features, flight alerts, and more!